Time;durP1;ratioP1;P1;durP2;ratioP2;P2;SDS_P1;SDS_P2;PMS_P1;PMS_P2;Temp;Humidity;BMP_temperature;BMP_pressure;BME280_temperature;BME280_humidity;BME280_pressure;Samples;Min_cycle;Max_cycle;Signal;HPM_P1;HPM_P2
2022/08/12 00:43:04;;;;;;;;;;;21.80;46.30;;;;;;484040;246;1132;-74
2022/08/12 00:45:04;;;;;;;;;;;21.90;46.30;;;;;;470323;253;2167;-74
2022/08/12 00:47:06;;;;;;;;;;;21.90;46.20;;;;;;469801;253;1073;-74
2022/08/12 00:49:07;;;;;;;;;;;21.80;46.30;;;;;;478357;249;1023;-74
2022/08/12 00:51:08;;;;;;;;;;;21.70;46.60;;;;;;484224;246;1083;-75
2022/08/12 00:53:10;;;;;;;;;;;21.60;46.70;;;;;;470251;253;1124;-74
2022/08/12 00:55:12;;;;;;;;;;;21.60;46.90;;;;;;469827;249;1111;-74
2022/08/12 00:57:12;;;;;;;;;;;21.50;47.10;;;;;;484073;246;1431;-74
2022/08/12 00:59:14;;;;;;;;;;;21.50;46.90;;;;;;470255;254;1083;-74
2022/08/12 01:01:15;;;;;;;;;;;21.50;47.10;;;;;;469812;253;1053;-74
2022/08/12 01:03:17;;;;;;;;;;;21.40;47.20;;;;;;478312;249;995;-74
2022/08/12 01:12:16;;;;;;;;;;;21.50;46.80;;;;;;484109;246;1049;-74
2022/08/12 01:14:17;;;;;;;;;;;21.50;46.90;;;;;;470221;253;1099;-74
2022/08/12 01:16:21;;;;;;;;;;;21.50;46.80;;;;;;469735;253;1131;-74
2022/08/12 01:18:20;;;;;;;;;;;21.60;46.80;;;;;;483973;246;1302;-74
2022/08/12 01:20:21;;;;;;;;;;;21.50;46.80;;;;;;470250;253;1042;-74
2022/08/12 01:22:24;;;;;;;;;;;21.50;46.90;;;;;;469785;253;1108;-74
2022/08/12 01:24:25;;;;;;;;;;;21.40;47.00;;;;;;478317;249;2190;-74
2022/08/12 01:26:26;;;;;;;;;;;21.50;47.00;;;;;;483977;246;1148;-74
2022/08/12 01:28:27;;;;;;;;;;;21.50;47.10;;;;;;470291;253;1191;-74
2022/08/12 01:30:30;;;;;;;;;;;21.50;47.10;;;;;;469898;253;1181;-74
2022/08/12 01:32:30;;;;;;;;;;;21.40;47.10;;;;;;478377;246;1238;-74
2022/08/12 01:34:31;;;;;;;;;;;21.50;47.10;;;;;;484135;246;1128;-74
2022/08/12 01:36:33;;;;;;;;;;;21.50;46.90;;;;;;470338;253;1165;-74
2022/08/12 01:38:34;;;;;;;;;;;21.60;46.70;;;;;;469833;253;1118;-74
2022/08/12 01:40:37;;;;;;;;;;;21.60;46.80;;;;;;478433;249;1133;-74
2022/08/12 01:42:37;;;;;;;;;;;21.60;46.80;;;;;;484006;246;1386;-74
2022/08/12 01:44:38;;;;;;;;;;;21.70;46.60;;;;;;470287;253;2191;-74
2022/08/12 01:46:39;;;;;;;;;;;21.70;46.60;;;;;;469818;253;1171;-74
2022/08/12 01:48:41;;;;;;;;;;;21.60;46.80;;;;;;484111;246;1586;-74
2022/08/12 01:50:42;;;;;;;;;;;21.60;46.90;;;;;;470292;253;1153;-74
2022/08/12 01:52:43;;;;;;;;;;;21.60;46.80;;;;;;469789;253;1179;-74
2022/08/12 01:54:45;;;;;;;;;;;21.60;46.70;;;;;;478469;249;1289;-74
2022/08/12 01:56:48;;;;;;;;;;;21.60;46.90;;;;;;484065;246;1139;-74
2022/08/12 02:01:28;;;;;;;;;;;21.70;46.80;;;;;;446049;267;1152;-74
2022/08/12 02:03:28;;;;;;;;;;;21.60;46.80;;;;;;461801;258;1420;-74
2022/08/12 02:12:26;;;;;;;;;;;21.60;46.80;;;;;;465004;244;1162;-74
2022/08/12 02:14:28;;;;;;;;;;;21.50;47.00;;;;;;487586;244;1401;-74
2022/08/12 02:16:29;;;;;;;;;;;21.50;47.10;;;;;;487495;244;1182;-74
2022/08/12 02:18:30;;;;;;;;;;;21.60;46.90;;;;;;487434;244;1139;-74
2022/08/12 02:20:32;;;;;;;;;;;21.70;46.70;;;;;;487491;244;1214;-74
2022/08/12 02:22:35;;;;;;;;;;;21.70;46.60;;;;;;487586;244;1284;-74
2022/08/12 02:24:34;;;;;;;;;;;21.80;46.40;;;;;;487351;245;2198;-74
2022/08/12 02:26:36;;;;;;;;;;;21.80;46.30;;;;;;487449;245;1126;-74
2022/08/12 02:28:37;;;;;;;;;;;21.70;46.40;;;;;;487496;245;1414;-74
2022/08/12 02:30:39;;;;;;;;;;;21.60;46.50;;;;;;487535;244;1263;-74
2022/08/12 02:32:41;;;;;;;;;;;21.60;46.70;;;;;;487528;244;1113;-74
2022/08/12 02:34:42;;;;;;;;;;;21.50;46.90;;;;;;487479;245;1283;-74
2022/08/12 02:36:43;;;;;;;;;;;21.50;46.70;;;;;;487417;244;1415;-74
2022/08/12 02:38:44;;;;;;;;;;;21.60;46.70;;;;;;487421;244;1486;-74
2022/08/12 02:40:45;;;;;;;;;;;21.60;46.60;;;;;;487426;244;1207;-74
2022/08/12 02:42:48;;;;;;;;;;;21.60;46.60;;;;;;487461;245;1187;-74
2022/08/12 02:44:48;;;;;;;;;;;21.60;46.50;;;;;;487311;245;2197;-74
2022/08/12 02:46:49;;;;;;;;;;;21.60;46.60;;;;;;487512;245;1179;-74
2022/08/12 02:48:51;;;;;;;;;;;21.50;46.70;;;;;;487506;244;1157;-74
2022/08/12 02:50:52;;;;;;;;;;;21.60;46.70;;;;;;487510;244;1089;-74
2022/08/12 02:52:54;;;;;;;;;;;21.60;46.60;;;;;;487602;244;1102;-74
2022/08/12 02:54:55;;;;;;;;;;;21.50;46.80;;;;;;487542;245;1263;-74
2022/08/12 02:56:57;;;;;;;;;;;21.40;47.00;;;;;;487678;244;1309;-74
2022/08/12 02:58:57;;;;;;;;;;;21.50;47.00;;;;;;487599;244;1468;-74
2022/08/12 03:01:00;;;;;;;;;;;21.50;47.00;;;;;;487608;245;1137;-74
2022/08/12 03:03:00;;;;;;;;;;;21.50;46.90;;;;;;487449;244;1361;-74
2022/08/12 03:05:02;;;;;;;;;;;21.40;47.00;;;;;;487520;245;2183;-74
2022/08/12 03:07:03;;;;;;;;;;;21.50;47.00;;;;;;487527;244;1163;-74
2022/08/12 03:09:04;;;;;;;;;;;21.60;46.80;;;;;;487474;245;1134;-74
2022/08/12 03:11:06;;;;;;;;;;;21.50;46.90;;;;;;487514;244;1119;-74
2022/08/12 03:13:07;;;;;;;;;;;21.50;47.00;;;;;;487525;245;1284;-74
2022/08/12 03:15:09;;;;;;;;;;;21.50;46.90;;;;;;487549;244;1126;-74
2022/08/12 03:17:11;;;;;;;;;;;21.50;47.00;;;;;;487563;245;1166;-74
2022/08/12 03:19:12;;;;;;;;;;;21.60;46.80;;;;;;487521;244;1191;-74
2022/08/12 03:21:13;;;;;;;;;;;21.60;46.70;;;;;;487604;245;1085;-74
2022/08/12 03:23:15;;;;;;;;;;;21.50;46.80;;;;;;487530;244;1035;-74
2022/08/12 03:25:16;;;;;;;;;;;21.60;46.80;;;;;;487491;245;2190;-74
2022/08/12 03:27:18;;;;;;;;;;;21.60;46.70;;;;;;487599;241;1242;-74
2022/08/12 03:29:19;;;;;;;;;;;21.60;46.80;;;;;;487536;245;1456;-74
2022/08/12 03:31:20;;;;;;;;;;;21.60;46.60;;;;;;487512;244;1095;-74
2022/08/12 03:33:21;;;;;;;;;;;21.70;46.60;;;;;;487599;244;1117;-74
2022/08/12 03:35:25;;;;;;;;;;;21.70;46.60;;;;;;487488;245;1086;-74
2022/08/12 03:37:25;;;;;;;;;;;21.70;46.60;;;;;;487492;245;1461;-74
2022/08/12 03:39:39;;;;;;;;;;;21.70;46.60;;;;;;487555;245;1200;-74
2022/08/12 03:41:34;;;;;;;;;;;21.70;46.50;;;;;;486509;245;1415;-74
2022/08/12 04:02:09;;;;;;;;;;;21.70;46.40;;;;;;487488;245;1154;-74
2022/08/12 04:04:10;;;;;;;;;;;21.60;46.40;;;;;;487468;244;1079;-74
2022/08/12 04:06:12;;;;;;;;;;;21.60;46.50;;;;;;487383;245;2111;-74
2022/08/12 04:08:13;;;;;;;;;;;21.60;46.50;;;;;;487418;245;1184;-74
2022/08/12 04:10:14;;;;;;;;;;;21.60;46.60;;;;;;487418;245;1017;-74
2022/08/12 04:14:35;;;;;;;;;;;21.50;46.70;;;;;;487500;244;1159;-74
2022/08/12 04:16:36;;;;;;;;;;;21.40;46.80;;;;;;487398;244;1174;-74
2022/08/12 04:18:38;;;;;;;;;;;21.60;46.80;;;;;;487397;244;1098;-74
2022/08/12 04:20:41;;;;;;;;;;;21.60;46.70;;;;;;487463;244;1163;-74
2022/08/12 04:22:41;;;;;;;;;;;21.60;46.60;;;;;;487204;245;1425;-74
2022/08/12 04:24:43;;;;;;;;;;;21.60;46.50;;;;;;487347;244;2202;-74
2022/08/12 04:26:43;;;;;;;;;;;21.70;46.50;;;;;;487284;245;1407;-74
2022/08/12 04:28:44;;;;;;;;;;;21.70;46.30;;;;;;487396;244;1093;-74
2022/08/12 04:30:46;;;;;;;;;;;21.80;46.30;;;;;;487420;244;1098;-74
2022/08/12 04:32:47;;;;;;;;;;;21.80;46.20;;;;;;487333;244;1172;-74
2022/08/12 04:34:48;;;;;;;;;;;21.80;46.10;;;;;;487300;245;1063;-74
2022/08/12 04:36:50;;;;;;;;;;;21.90;46.00;;;;;;487355;244;1166;-74
2022/08/12 04:38:51;;;;;;;;;;;21.90;46.00;;;;;;487328;244;1095;-74
2022/08/12 04:40:52;;;;;;;;;;;21.90;46.00;;;;;;487344;244;1119;-74
2022/08/12 04:42:54;;;;;;;;;;;21.90;46.10;;;;;;487366;245;1062;-74
2022/08/12 04:44:56;;;;;;;;;;;21.90;46.00;;;;;;487322;244;2205;-74
2022/08/12 04:46:57;;;;;;;;;;;21.80;46.20;;;;;;487254;241;1394;-74
2022/08/12 04:48:59;;;;;;;;;;;21.80;46.30;;;;;;487422;244;1141;-74
2022/08/12 04:50:59;;;;;;;;;;;21.80;46.20;;;;;;487413;244;1272;-74
2022/08/12 04:53:00;;;;;;;;;;;21.80;46.40;;;;;;487459;245;1149;-74
2022/08/12 04:55:02;;;;;;;;;;;21.80;46.40;;;;;;487356;245;1186;-75
2022/08/12 04:57:04;;;;;;;;;;;21.80;46.30;;;;;;487338;244;1074;-74
2022/08/12 04:59:04;;;;;;;;;;;21.90;46.20;;;;;;487238;245;1405;-74
2022/08/12 05:01:06;;;;;;;;;;;21.80;46.20;;;;;;487336;244;1149;-74
2022/08/12 05:03:07;;;;;;;;;;;21.80;46.20;;;;;;487231;244;1182;-74
2022/08/12 05:05:08;;;;;;;;;;;21.70;46.20;;;;;;487221;244;2166;-74
2022/08/12 05:07:10;;;;;;;;;;;21.80;46.20;;;;;;487402;244;1082;-74
2022/08/12 05:09:11;;;;;;;;;;;21.70;46.20;;;;;;487396;244;1053;-74
2022/08/12 05:11:12;;;;;;;;;;;21.80;46.30;;;;;;487395;245;1005;-74
2022/08/12 05:13:14;;;;;;;;;;;21.80;46.20;;;;;;487289;244;984;-74
2022/08/12 05:15:15;;;;;;;;;;;21.90;46.10;;;;;;487301;244;1059;-74
2022/08/12 05:17:16;;;;;;;;;;;21.80;46.00;;;;;;487285;244;1104;-74
2022/08/12 05:19:20;;;;;;;;;;;21.80;45.90;;;;;;487321;244;1049;-74
2022/08/12 05:21:19;;;;;;;;;;;21.90;46.00;;;;;;487043;245;1438;-74
2022/08/12 05:23:21;;;;;;;;;;;21.80;46.00;;;;;;487259;245;1345;-74
2022/08/12 05:25:22;;;;;;;;;;;21.80;46.10;;;;;;487277;244;2157;-74
2022/08/12 05:27:23;;;;;;;;;;;21.80;46.10;;;;;;487305;244;1059;-74
2022/08/12 05:29:24;;;;;;;;;;;21.80;46.20;;;;;;487324;244;1056;-74
2022/08/12 05:31:26;;;;;;;;;;;21.80;46.20;;;;;;487247;245;1238;-74
2022/08/12 05:33:36;;;;;;;;;;;21.90;46.30;;;;;;487156;244;1042;-74
2022/08/12 05:35:29;;;;;;;;;;;21.80;46.20;;;;;;486454;245;1268;-74
2022/08/12 05:37:30;;;;;;;;;;;21.90;46.30;;;;;;487370;245;1006;-74
2022/08/12 05:39:31;;;;;;;;;;;21.80;46.30;;;;;;487340;244;1425;-74
2022/08/12 05:41:34;;;;;;;;;;;21.80;46.20;;;;;;487332;244;1199;-74
2022/08/12 05:43:34;;;;;;;;;;;21.80;46.40;;;;;;487336;244;1346;-74
2022/08/12 05:45:35;;;;;;;;;;;21.80;46.40;;;;;;487290;245;2223;-74
2022/08/12 05:47:37;;;;;;;;;;;21.80;46.40;;;;;;487290;245;1139;-74
2022/08/12 05:49:39;;;;;;;;;;;21.80;46.50;;;;;;487237;244;1092;-74
2022/08/12 05:51:41;;;;;;;;;;;21.70;46.70;;;;;;487176;244;1486;-74
2022/08/12 05:53:41;;;;;;;;;;;21.70;46.80;;;;;;487191;244;1386;-74
2022/08/12 05:55:43;;;;;;;;;;;21.70;46.70;;;;;;487100;244;1072;-74
2022/08/12 05:57:47;;;;;;;;;;;21.80;46.60;;;;;;487060;244;1132;-74
2022/08/12 05:59:46;;;;;;;;;;;21.90;46.50;;;;;;486896;244;1889;-75
2022/08/12 06:01:47;;;;;;;;;;;21.90;46.50;;;;;;487078;244;1258;-74
2022/08/12 06:03:48;;;;;;;;;;;21.90;46.40;;;;;;487102;245;1120;-74
2022/08/12 06:05:50;;;;;;;;;;;22.00;46.20;;;;;;487022;244;2190;-74
2022/08/12 06:07:51;;;;;;;;;;;22.10;46.10;;;;;;486998;244;1279;-74
2022/08/12 06:09:52;;;;;;;;;;;22.00;46.10;;;;;;487109;244;1073;-74
2022/08/12 06:11:54;;;;;;;;;;;22.00;46.10;;;;;;487119;244;1263;-74
2022/08/12 06:13:57;;;;;;;;;;;22.00;46.10;;;;;;487207;245;1408;-74
2022/08/12 06:15:56;;;;;;;;;;;22.00;46.20;;;;;;487174;245;1236;-74
2022/08/12 06:17:59;;;;;;;;;;;22.00;46.30;;;;;;487133;244;1037;-75
2022/08/12 06:19:59;;;;;;;;;;;22.00;46.30;;;;;;487183;244;1406;-74
2022/08/12 06:22:00;;;;;;;;;;;21.90;46.20;;;;;;487031;244;1125;-74
2022/08/12 06:24:02;;;;;;;;;;;21.90;46.20;;;;;;487185;245;1086;-74
2022/08/12 06:26:03;;;;;;;;;;;21.90;46.30;;;;;;487039;245;2170;-74
2022/08/12 06:28:05;;;;;;;;;;;22.00;46.20;;;;;;487076;244;1145;-74
2022/08/12 06:30:07;;;;;;;;;;;22.00;46.10;;;;;;487059;244;1099;-74
2022/08/12 06:32:07;;;;;;;;;;;21.90;46.10;;;;;;486969;245;1783;-74
2022/08/12 06:34:09;;;;;;;;;;;21.90;46.20;;;;;;487078;244;1139;-74
2022/08/12 06:36:10;;;;;;;;;;;21.90;46.20;;;;;;487159;244;1382;-74
2022/08/12 06:38:12;;;;;;;;;;;21.80;46.30;;;;;;487097;244;1062;-74
2022/08/12 06:40:12;;;;;;;;;;;21.90;46.30;;;;;;486863;244;1233;-74
2022/08/12 06:44:33;;;;;;;;;;;22.00;46.10;;;;;;486860;244;1135;-74
2022/08/12 06:46:37;;;;;;;;;;;22.00;46.10;;;;;;486956;244;2150;-74
2022/08/12 06:48:37;;;;;;;;;;;21.90;46.20;;;;;;486829;245;1414;-74
2022/08/12 06:50:38;;;;;;;;;;;21.90;46.40;;;;;;486768;244;1187;-74
2022/08/12 06:52:40;;;;;;;;;;;22.00;46.40;;;;;;487008;245;1071;-74
2022/08/12 06:54:43;;;;;;;;;;;22.00;46.30;;;;;;487002;244;1098;-74
2022/08/12 06:56:43;;;;;;;;;;;22.00;46.40;;;;;;486910;245;1388;-74
2022/08/12 06:58:44;;;;;;;;;;;22.10;46.30;;;;;;487039;245;1119;-74
2022/08/12 07:00:46;;;;;;;;;;;22.00;46.20;;;;;;486853;245;1097;-74
2022/08/12 07:02:47;;;;;;;;;;;22.00;46.30;;;;;;486957;244;1241;-75
2022/08/12 07:04:48;;;;;;;;;;;21.90;46.50;;;;;;486789;244;1087;-74
2022/08/12 07:06:50;;;;;;;;;;;22.00;46.60;;;;;;486852;244;2202;-74
2022/08/12 07:08:51;;;;;;;;;;;22.00;46.60;;;;;;487001;244;1107;-74
2022/08/12 07:10:56;;;;;;;;;;;22.00;46.60;;;;;;487041;244;1116;-74
2022/08/12 07:12:54;;;;;;;;;;;22.10;46.50;;;;;;486740;245;1331;-75
2022/08/12 07:14:56;;;;;;;;;;;22.10;46.20;;;;;;486837;244;1242;-74
2022/08/12 07:17:00;;;;;;;;;;;22.10;46.30;;;;;;486787;244;1079;-74
2022/08/12 07:18:58;;;;;;;;;;;22.10;46.40;;;;;;486699;245;1269;-74
2022/08/12 07:21:02;;;;;;;;;;;22.10;46.40;;;;;;486914;244;1353;-74
2022/08/12 07:23:01;;;;;;;;;;;22.10;46.40;;;;;;486683;244;1298;-74
2022/08/12 07:27:22;;;;;;;;;;;22.10;46.40;;;;;;486793;244;2119;-74
2022/08/12 07:29:24;;;;;;;;;;;22.10;46.40;;;;;;487026;244;1119;-74
2022/08/12 07:31:26;;;;;;;;;;;22.20;46.40;;;;;;486802;245;1369;-74
2022/08/12 07:33:27;;;;;;;;;;;22.20;46.30;;;;;;486603;245;1296;-74
2022/08/12 07:35:28;;;;;;;;;;;22.20;46.40;;;;;;486825;244;1100;-74
2022/08/12 07:37:30;;;;;;;;;;;22.20;46.50;;;;;;486826;245;1271;-74
2022/08/12 07:39:31;;;;;;;;;;;22.30;46.40;;;;;;486941;245;1174;-74
2022/08/12 07:41:33;;;;;;;;;;;22.30;46.40;;;;;;486803;245;1250;-74
2022/08/12 07:43:35;;;;;;;;;;;22.30;46.40;;;;;;486886;244;1133;-74
2022/08/12 07:45:36;;;;;;;;;;;22.30;46.50;;;;;;486883;245;1218;-74
2022/08/12 07:47:39;;;;;;;;;;;22.30;46.40;;;;;;486884;244;2170;-74
2022/08/12 07:49:38;;;;;;;;;;;22.40;46.40;;;;;;486912;244;1355;-74
2022/08/12 07:51:40;;;;;;;;;;;22.40;46.30;;;;;;486866;245;1190;-74
2022/08/12 07:53:41;;;;;;;;;;;22.40;46.30;;;;;;486797;244;1162;-74
2022/08/12 07:55:42;;;;;;;;;;;22.50;46.30;;;;;;486729;244;1349;-74
2022/08/12 07:57:44;;;;;;;;;;;22.50;46.30;;;;;;486823;245;1155;-74
2022/08/12 07:59:45;;;;;;;;;;;22.50;46.20;;;;;;486799;244;1352;-74
2022/08/12 08:01:48;;;;;;;;;;;22.50;46.30;;;;;;486711;244;1112;-74
2022/08/12 08:06:11;;;;;;;;;;;22.50;46.20;;;;;;486699;244;2182;-74
2022/08/12 08:08:10;;;;;;;;;;;22.50;46.20;;;;;;486768;244;1518;-74
2022/08/12 08:10:12;;;;;;;;;;;22.50;46.20;;;;;;486974;245;1161;-74
2022/08/12 08:14:32;;;;;;;;;;;22.60;46.20;;;;;;486752;245;1111;-74
2022/08/12 08:16:34;;;;;;;;;;;22.60;46.10;;;;;;486864;244;1144;-74
2022/08/12 08:18:35;;;;;;;;;;;22.60;46.00;;;;;;486772;244;1251;-74
2022/08/12 08:20:36;;;;;;;;;;;22.60;46.00;;;;;;486639;245;1311;-74
2022/08/12 08:22:37;;;;;;;;;;;22.60;46.00;;;;;;486758;244;1400;-74
2022/08/12 08:24:39;;;;;;;;;;;22.60;46.10;;;;;;486773;244;1734;-74
2022/08/12 08:26:40;;;;;;;;;;;22.60;46.10;;;;;;486735;244;2201;-74
2022/08/12 08:28:41;;;;;;;;;;;22.60;46.20;;;;;;486990;244;1179;-74
2022/08/12 08:30:43;;;;;;;;;;;22.60;46.20;;;;;;486773;244;1204;-74
2022/08/12 08:32:44;;;;;;;;;;;22.60;46.30;;;;;;486832;244;1141;-74
2022/08/12 08:34:46;;;;;;;;;;;22.70;46.20;;;;;;486834;244;1078;-74
2022/08/12 08:36:47;;;;;;;;;;;22.60;46.30;;;;;;486746;245;1165;-74
2022/08/12 08:38:48;;;;;;;;;;;22.60;46.20;;;;;;486812;244;1086;-74
2022/08/12 08:43:09;;;;;;;;;;;22.70;46.10;;;;;;486811;245;1143;-74
2022/08/12 08:45:12;;;;;;;;;;;22.70;46.10;;;;;;486743;244;1144;-74
2022/08/12 08:47:13;;;;;;;;;;;22.70;46.10;;;;;;486755;245;2186;-74
2022/08/12 08:49:15;;;;;;;;;;;22.70;46.10;;;;;;486758;244;1158;-74
2022/08/12 08:51:16;;;;;;;;;;;22.70;46.10;;;;;;486768;245;1154;-74
2022/08/12 08:53:17;;;;;;;;;;;22.80;46.10;;;;;;486783;244;1054;-74
2022/08/12 08:55:19;;;;;;;;;;;22.70;46.10;;;;;;486716;245;1054;-74
2022/08/12 08:57:20;;;;;;;;;;;22.70;46.30;;;;;;486878;244;1257;-74
2022/08/12 08:59:22;;;;;;;;;;;22.70;46.20;;;;;;486933;244;1169;-74
2022/08/12 09:01:23;;;;;;;;;;;22.70;46.30;;;;;;486850;245;2059;-74
2022/08/12 09:03:25;;;;;;;;;;;22.70;46.20;;;;;;486919;244;1123;-74
2022/08/12 09:05:26;;;;;;;;;;;22.70;46.30;;;;;;486671;245;1180;-74
2022/08/12 09:07:27;;;;;;;;;;;22.70;46.20;;;;;;486867;245;2198;-74
2022/08/12 09:09:29;;;;;;;;;;;22.70;46.20;;;;;;486854;245;1134;-74
2022/08/12 09:13:49;;;;;;;;;;;22.70;46.20;;;;;;486795;244;1114;-74
2022/08/12 09:15:51;;;;;;;;;;;22.80;46.20;;;;;;486684;244;1254;-74
2022/08/12 09:17:54;;;;;;;;;;;22.80;46.20;;;;;;486676;245;1325;-74
2022/08/12 09:19:53;;;;;;;;;;;22.80;46.10;;;;;;486592;245;2191;-74
2022/08/12 09:21:56;;;;;;;;;;;22.90;46.10;;;;;;486741;245;1139;-74
2022/08/12 09:24:00;;;;;;;;;;;22.90;45.90;;;;;;486757;244;1346;-74
2022/08/12 09:25:59;;;;;;;;;;;22.90;46.10;;;;;;486379;245;2011;-74
2022/08/12 09:27:59;;;;;;;;;;;22.90;46.00;;;;;;486698;245;2182;-74
2022/08/12 09:30:02;;;;;;;;;;;22.80;46.10;;;;;;486775;244;1125;-74
2022/08/12 09:32:05;;;;;;;;;;;22.80;46.20;;;;;;486674;245;1414;-74
2022/08/12 09:34:03;;;;;;;;;;;22.80;46.20;;;;;;486395;245;1411;-74
2022/08/12 09:36:04;;;;;;;;;;;22.70;46.20;;;;;;486759;244;1102;-74
2022/08/12 09:38:05;;;;;;;;;;;22.70;46.30;;;;;;486839;245;1093;-74
2022/08/12 09:40:07;;;;;;;;;;;22.70;46.30;;;;;;486836;244;1108;-74
2022/08/12 09:47:06;;;;;;;;;;;22.70;46.30;;;;;;460748;258;2199;-74
2022/08/12 09:49:09;;;;;;;;;;;22.70;46.30;;;;;;454018;249;1338;-74
2022/08/12 09:51:11;;;;;;;;;;;22.80;46.30;;;;;;483448;246;1428;-74
2022/08/12 09:53:12;;;;;;;;;;;22.70;46.30;;;;;;469627;254;1380;-74
2022/08/12 09:55:12;;;;;;;;;;;22.70;46.20;;;;;;469120;254;1297;-74
2022/08/12 09:57:17;;;;;;;;;;;22.70;46.20;;;;;;477838;249;1197;-74
2022/08/12 09:59:18;;;;;;;;;;;22.80;46.10;;;;;;483538;246;2263;-74
2022/08/12 10:01:19;;;;;;;;;;;22.80;46.00;;;;;;469668;253;1149;-74
2022/08/12 10:03:25;;;;;;;;;;;22.80;46.10;;;;;;469191;253;1173;-74
2022/08/12 10:05:22;;;;;;;;;;;22.80;46.00;;;;;;483021;246;1391;-74
2022/08/12 10:07:23;;;;;;;;;;;22.80;46.00;;;;;;469570;253;2215;-74
2022/08/12 10:09:24;;;;;;;;;;;22.90;45.90;;;;;;469235;253;1112;-74
2022/08/12 10:13:45;;;;;;;;;;;22.90;45.80;;;;;;469785;254;1403;-74
2022/08/12 10:15:46;;;;;;;;;;;22.90;45.80;;;;;;469249;253;1102;-74
2022/08/12 10:17:49;;;;;;;;;;;22.90;45.70;;;;;;477900;249;1163;-74
2022/08/12 10:19:51;;;;;;;;;;;22.90;45.80;;;;;;483588;246;1345;-74
2022/08/12 10:21:53;;;;;;;;;;;22.90;45.70;;;;;;477708;249;1515;-74
2022/08/12 10:23:53;;;;;;;;;;;22.90;45.80;;;;;;483469;246;1435;-74
2022/08/12 10:30:33;;;;;;;;;;;23.00;45.70;;;;;;469887;253;1313;-74
2022/08/12 10:32:35;;;;;;;;;;;23.00;45.60;;;;;;483609;246;1072;-74
2022/08/12 10:34:36;;;;;;;;;;;23.00;45.70;;;;;;469798;253;1145;-74
2022/08/12 10:36:38;;;;;;;;;;;22.90;45.70;;;;;;469235;253;1178;-74
2022/08/12 10:38:39;;;;;;;;;;;22.90;45.70;;;;;;477715;249;1111;-74
2022/08/12 10:45:21;;;;;;;;;;;23.00;45.60;;;;;;483695;246;1624;-74
2022/08/12 10:47:22;;;;;;;;;;;23.00;45.50;;;;;;469843;253;2214;-74
2022/08/12 10:49:27;;;;;;;;;;;23.00;45.50;;;;;;469168;253;1160;-74
2022/08/12 10:51:29;;;;;;;;;;;23.00;45.50;;;;;;477540;249;1383;-74
2022/08/12 10:53:28;;;;;;;;;;;22.90;45.60;;;;;;483509;246;1927;-74
2022/08/12 10:55:28;;;;;;;;;;;22.90;45.70;;;;;;469454;253;1396;-75
2022/08/12 10:57:30;;;;;;;;;;;22.90;45.60;;;;;;469250;253;1167;-74
2022/08/12 10:59:31;;;;;;;;;;;22.90;45.60;;;;;;483447;246;1160;-74
2022/08/12 11:01:33;;;;;;;;;;;22.90;45.60;;;;;;469719;253;1204;-74
2022/08/12 11:03:36;;;;;;;;;;;22.90;45.60;;;;;;469299;253;1306;-74
2022/08/12 11:05:35;;;;;;;;;;;23.00;45.50;;;;;;477737;249;1363;-74
2022/08/12 11:07:37;;;;;;;;;;;23.00;45.60;;;;;;483509;246;2184;-74
2022/08/12 11:09:38;;;;;;;;;;;22.90;45.50;;;;;;469563;253;1181;-74
2022/08/12 11:11:41;;;;;;;;;;;22.90;45.50;;;;;;469087;253;1203;-74
2022/08/12 11:13:41;;;;;;;;;;;23.00;45.40;;;;;;483372;246;1275;-74
2022/08/12 11:15:42;;;;;;;;;;;23.00;45.20;;;;;;469580;254;1189;-74
2022/08/12 11:17:43;;;;;;;;;;;23.10;45.10;;;;;;469192;253;1576;-74
2022/08/12 11:19:45;;;;;;;;;;;23.10;45.10;;;;;;477694;249;1104;-74
2022/08/12 11:21:46;;;;;;;;;;;23.10;45.10;;;;;;483488;246;1160;-74
2022/08/12 11:23:47;;;;;;;;;;;23.10;45.00;;;;;;469737;253;1185;-74
2022/08/12 11:25:49;;;;;;;;;;;23.10;44.90;;;;;;469261;253;1204;-74
2022/08/12 11:27:50;;;;;;;;;;;23.00;45.00;;;;;;483503;246;2160;-74
2022/08/12 11:29:51;;;;;;;;;;;23.00;45.10;;;;;;469726;253;1148;-74
2022/08/12 11:31:53;;;;;;;;;;;23.00;45.00;;;;;;469319;253;1189;-74
2022/08/12 11:33:54;;;;;;;;;;;23.00;45.00;;;;;;477785;249;1125;-74
2022/08/12 11:35:55;;;;;;;;;;;23.00;45.10;;;;;;483477;246;1175;-74
2022/08/12 11:37:57;;;;;;;;;;;23.00;45.10;;;;;;469770;253;1115;-74
2022/08/12 11:39:58;;;;;;;;;;;23.00;45.00;;;;;;469267;253;1088;-74
2022/08/12 11:41:59;;;;;;;;;;;23.00;44.80;;;;;;483578;246;1108;-74
2022/08/12 11:44:01;;;;;;;;;;;23.00;44.80;;;;;;469791;253;1079;-74
2022/08/12 11:46:02;;;;;;;;;;;22.90;44.90;;;;;;469330;253;1500;-74
2022/08/12 11:48:03;;;;;;;;;;;23.00;45.00;;;;;;477851;249;2163;-74
2022/08/12 11:50:04;;;;;;;;;;;23.00;44.80;;;;;;483569;246;1143;-74
2022/08/12 11:52:06;;;;;;;;;;;23.00;44.80;;;;;;469702;253;1130;-74
2022/08/12 11:54:07;;;;;;;;;;;23.00;44.70;;;;;;469301;253;1121;-74
2022/08/12 11:56:09;;;;;;;;;;;22.90;44.70;;;;;;483617;246;1100;-74
2022/08/12 11:58:10;;;;;;;;;;;22.90;44.60;;;;;;469831;253;1072;-74
2022/08/12 12:00:11;;;;;;;;;;;23.00;44.50;;;;;;469321;253;1426;-74
2022/08/12 12:02:12;;;;;;;;;;;22.80;44.60;;;;;;477843;249;1115;-74
2022/08/12 12:04:14;;;;;;;;;;;22.80;44.70;;;;;;483505;246;1237;-74
2022/08/12 12:06:15;;;;;;;;;;;22.80;44.60;;;;;;469714;253;1174;-74
2022/08/12 12:08:16;;;;;;;;;;;22.80;44.60;;;;;;469285;253;2227;-74
2022/08/12 12:10:18;;;;;;;;;;;22.70;44.60;;;;;;483290;246;1426;-74
2022/08/12 12:12:19;;;;;;;;;;;22.70;44.50;;;;;;469726;253;1186;-75
2022/08/12 12:14:20;;;;;;;;;;;22.80;44.60;;;;;;469363;253;1083;-74
2022/08/12 12:16:22;;;;;;;;;;;22.80;44.40;;;;;;483623;246;1225;-74
2022/08/12 12:18:23;;;;;;;;;;;22.80;44.40;;;;;;469798;253;1111;-74
2022/08/12 12:20:24;;;;;;;;;;;22.80;44.60;;;;;;469294;253;1145;-74
2022/08/12 12:22:26;;;;;;;;;;;22.80;44.50;;;;;;477787;249;1104;-74
2022/08/12 12:24:28;;;;;;;;;;;22.80;44.40;;;;;;483547;246;1145;-74
2022/08/12 12:26:28;;;;;;;;;;;22.90;44.40;;;;;;469751;253;1179;-74
2022/08/12 12:28:30;;;;;;;;;;;22.90;44.20;;;;;;469269;253;2195;-74
2022/08/12 12:30:31;;;;;;;;;;;22.90;44.30;;;;;;477667;249;1321;-74
2022/08/12 12:32:33;;;;;;;;;;;22.80;44.20;;;;;;483449;246;1095;-74
2022/08/12 12:34:34;;;;;;;;;;;22.80;44.30;;;;;;469958;253;1169;-74
2022/08/12 12:36:35;;;;;;;;;;;22.80;44.30;;;;;;469318;253;1162;-74
2022/08/12 12:38:36;;;;;;;;;;;22.90;44.30;;;;;;477909;249;1176;-74
2022/08/12 12:40:38;;;;;;;;;;;23.00;44.20;;;;;;483508;246;1139;-74
2022/08/12 12:42:39;;;;;;;;;;;23.00;44.00;;;;;;469789;253;1102;-74
2022/08/12 12:44:40;;;;;;;;;;;22.90;44.00;;;;;;469309;253;1112;-74
2022/08/12 12:46:42;;;;;;;;;;;22.90;44.30;;;;;;483528;246;1080;-74
2022/08/12 12:48:43;;;;;;;;;;;22.80;44.40;;;;;;469773;253;2202;-74
2022/08/12 12:50:44;;;;;;;;;;;22.90;44.30;;;;;;477554;249;1114;-74
2022/08/12 12:52:46;;;;;;;;;;;23.00;44.20;;;;;;477562;249;1220;-74
2022/08/12 12:54:51;;;;;;;;;;;23.00;44.10;;;;;;483570;246;1167;-74
2022/08/12 12:56:51;;;;;;;;;;;23.00;44.00;;;;;;469524;254;1426;-74
2022/08/12 12:58:50;;;;;;;;;;;22.90;44.00;;;;;;469165;254;1283;-74
2022/08/12 13:00:54;;;;;;;;;;;23.00;44.00;;;;;;483540;246;1108;-74
2022/08/12 13:02:54;;;;;;;;;;;22.80;44.20;;;;;;469579;254;1524;-74
2022/08/12 13:04:54;;;;;;;;;;;22.90;44.30;;;;;;469391;254;1401;-74
2022/08/12 13:06:55;;;;;;;;;;;22.80;44.10;;;;;;477982;249;1311;-74
2022/08/12 13:08:56;;;;;;;;;;;22.90;44.10;;;;;;483692;246;2204;-74
2022/08/12 13:10:59;;;;;;;;;;;22.90;43.90;;;;;;469923;253;1158;-74
2022/08/12 13:13:01;;;;;;;;;;;22.90;43.80;;;;;;469362;253;1162;-74
2022/08/12 13:15:02;;;;;;;;;;;23.00;43.80;;;;;;483650;246;1150;-74
2022/08/12 13:17:04;;;;;;;;;;;23.00;43.60;;;;;;469847;254;1279;-74
2022/08/12 13:19:05;;;;;;;;;;;22.90;43.70;;;;;;469353;253;1168;-74
2022/08/12 13:21:07;;;;;;;;;;;23.00;43.40;;;;;;477715;249;1264;-74
2022/08/12 13:23:08;;;;;;;;;;;23.10;43.10;;;;;;483573;246;1341;-74
2022/08/12 13:25:09;;;;;;;;;;;23.10;43.20;;;;;;469875;253;1104;-74
2022/08/12 13:27:10;;;;;;;;;;;23.00;43.20;;;;;;469429;253;1284;-74
2022/08/12 13:29:13;;;;;;;;;;;23.00;43.40;;;;;;477924;249;2162;-74
2022/08/12 13:31:15;;;;;;;;;;;23.10;43.20;;;;;;483576;246;1331;-74
2022/08/12 13:33:14;;;;;;;;;;;23.20;42.90;;;;;;477762;249;1458;-74
2022/08/12 13:35:16;;;;;;;;;;;23.00;43.00;;;;;;483562;246;1483;-74
2022/08/12 13:37:21;;;;;;;;;;;22.90;43.30;;;;;;469783;253;1198;-74
2022/08/12 13:39:20;;;;;;;;;;;23.00;43.30;;;;;;469201;253;1323;-74
2022/08/12 13:41:32;;;;;;;;;;;23.10;43.10;;;;;;483680;246;1255;-74
2022/08/12 13:43:33;;;;;;;;;;;23.10;43.00;;;;;;469832;254;1195;-74
2022/08/12 13:45:34;;;;;;;;;;;23.10;42.80;;;;;;469488;253;1121;-74
2022/08/12 13:47:38;;;;;;;;;;;23.10;42.70;;;;;;483686;246;1143;-74